Time;durP1;ratioP1;P1;durP2;ratioP2;P2;SDS_P1;SDS_P2;PMS_P1;PMS_P2;Temp;Humidity;BMP_temperature;BMP_pressure;BME280_temperature;BME280_humidity;BME280_pressure;Samples;Min_cycle;Max_cycle;Signal;HPM_P1;HPM_P2
2021/11/08 07:25:48;;;;;;;4.78;2.83;;;;;;;;;;10499345;28;20021;-90
2021/11/08 07:42:50;;;;;;;7.10;3.90;;;;;;;;;;10509614;28;20033;-88
2021/11/08 07:47:51;;;;;;;9.40;3.90;;;;;;;;;;10495023;28;20056;-87
2021/11/08 07:52:52;;;;;;;;;;;;;;;;;;10494313;28;20024;-87
2021/11/08 07:57:53;;;;;;;6.60;3.83;;;;;;;;;;10507016;28;19912;-88
2021/11/08 08:02:55;;;;;;;;;;;;;;;;;;10480148;28;20029;-85
2021/11/08 08:08:04;;;;;;;11.90;5.05;;;;;;;;;;10489638;28;19909;-86
2021/11/08 08:13:05;;;;;;;15.15;6.05;;;;;;;;;;10503973;28;20024;-86
2021/11/08 08:18:06;;;;;;;13.95;6.10;;;;;;;;;;10533226;28;20078;-85
2021/11/08 08:23:07;;;;;;;;;;;;;;;;;;10525161;28;20073;-85
2021/11/08 08:28:08;;;;;;;14.95;6.55;;;;;;;;;;10530734;28;20365;-85
2021/11/08 08:33:09;;;;;;;;;;;;;;;;;;10518655;28;20025;-84
2021/11/08 08:38:12;;;;;;;13.32;6.22;;;;;;;;;;10534353;28;19908;-84
2021/11/08 08:43:14;;;;;;;17.05;6.82;;;;;;;;;;10531722;28;20402;-86
2021/11/08 08:48:15;;;;;;;13.25;6.35;;;;;;;;;;10532645;28;20042;-85
2021/11/08 08:53:16;;;;;;;13.07;5.70;;;;;;;;;;10532016;28;20021;-85
2021/11/08 08:58:17;;;;;;;;;;;;;;;;;;10532134;28;20119;-85
2021/11/08 09:03:18;;;;;;;10.15;5.25;;;;;;;;;;10536945;28;20334;-87
2021/11/08 09:08:20;;;;;;;12.02;5.65;;;;;;;;;;10515156;28;20024;-81
2021/11/08 09:13:21;;;;;;;11.85;5.70;;;;;;;;;;10532188;28;20043;-86
2021/11/08 09:18:25;;;;;;;;;;;;;;;;;;10521466;28;20028;-86
2021/11/08 09:23:26;;;;;;;11.35;5.28;;;;;;;;;;10531508;28;19904;-82
2021/11/08 09:28:26;;;;;;;;;;;;;;;;;;10533978;28;20021;-83
2021/11/08 09:33:27;;;;;;;10.80;5.75;;;;;;;;;;10533111;28;19923;-84
2021/11/08 09:38:32;;;;;;;12.13;7.00;;;;;;;;;;10548987;28;20048;-82
2021/11/08 09:43:33;;;;;;;11.05;5.30;;;;;;;;;;10550708;28;20032;-84
2021/11/08 09:48:38;;;;;;;14.23;6.30;;;;;;;;;;10549221;28;20058;-83
2021/11/08 09:53:46;;;;;;;11.52;5.00;;;;;;;;;;10545154;28;20025;-85
2021/11/08 09:58:47;;;;;;;10.70;4.97;;;;;;;;;;10535561;28;20033;-84
2021/11/08 10:03:49;;;;;;;10.95;5.70;;;;;;;;;;10534309;28;20048;-83
2021/11/08 10:25:56;;;;;;;18.55;8.57;;;;;;;;;;10533840;28;20023;-86
2021/11/08 10:30:57;;;;;;;;;;;;;;;;;;10507756;28;20414;-85
2021/11/08 10:36:16;;;;;;;10.15;5.53;;;;;;;;;;10521706;28;19905;-86
2021/11/08 10:41:53;;;;;;;12.30;6.15;;;;;;;;;;10502641;28;20104;-87
2021/11/08 10:47:10;;;;;;;13.68;6.03;;;;;;;;;;10505415;28;20076;-87
2021/11/08 10:52:21;;;;;;;12.15;6.18;;;;;;;;;;10519407;28;20109;-86
2021/11/08 10:57:31;;;;;;;11.18;5.18;;;;;;;;;;10520967;28;20029;-87
2021/11/08 11:08:19;;;;;;;16.97;8.23;;;;;;;;;;10506689;28;20123;-87
2021/11/08 11:13:41;;;;;;;12.85;5.60;;;;;;;;;;10507263;28;20078;-87
2021/11/08 11:18:42;;;;;;;15.60;6.80;;;;;;;;;;10530967;28;20037;-86
2021/11/08 11:24:10;;;;;;;14.18;5.30;;;;;;;;;;10517672;28;20034;-86
2021/11/08 11:29:45;;;;;;;11.85;5.53;;;;;;;;;;10510606;28;20040;-82
2021/11/08 11:34:47;;;;;;;12.40;5.35;;;;;;;;;;10494644;28;20119;-87
2021/11/08 11:39:52;;;;;;;15.10;6.97;;;;;;;;;;10538859;28;20049;-86
2021/11/08 11:45:29;;;;;;;11.90;4.60;;;;;;;;;;10535426;28;20142;-86
2021/11/08 11:50:45;;;;;;;12.85;6.00;;;;;;;;;;10520737;28;20049;-87
2021/11/08 12:01:50;;;;;;;13.32;5.97;;;;;;;;;;10526179;28;20025;-88
2021/11/08 12:07:01;;;;;;;11.32;4.22;;;;;;;;;;10539541;28;20096;-85
2021/11/08 12:12:37;;;;;;;10.15;4.55;;;;;;;;;;10557781;28;20055;-85
2021/11/08 12:35:10;;;;;;;11.23;4.82;;;;;;;;;;10544488;28;20021;-81
2021/11/08 12:51:36;;;;;;;8.68;4.18;;;;;;;;;;10522390;28;20052;-86
2021/11/08 12:57:01;;;;;;;8.20;3.53;;;;;;;;;;10535817;28;20044;-87
2021/11/08 13:03:03;;;;;;;10.90;4.30;;;;;;;;;;10526693;28;20035;-87
2021/11/08 13:08:29;;;;;;;9.98;5.30;;;;;;;;;;10516995;28;20044;-87
2021/11/08 13:58:33;;;;;;;16.83;9.15;;;;;;;;;;10532547;28;20037;-85
2021/11/08 14:09:41;;;;;;;15.75;8.20;;;;;;;;;;10403021;28;20050;-85
2021/11/08 14:14:55;;;;;;;13.32;5.65;;;;;;;;;;10386083;28;20046;-84
2021/11/08 14:20:11;;;;;;;12.20;5.63;;;;;;;;;;10385215;28;20026;-84
2021/11/08 14:25:39;;;;;;;12.27;6.30;;;;;;;;;;10483060;28;20033;-85
2021/11/08 14:30:54;;;;;;;11.93;6.25;;;;;;;;;;10504561;28;20544;-84
2021/11/08 14:35:55;;;;;;;10.18;4.85;;;;;;;;;;10528111;28;20044;-84
2021/11/08 14:40:56;;;;;;;9.27;4.82;;;;;;;;;;10508275;28;20024;-87
2021/11/08 14:46:01;;;;;;;12.25;4.90;;;;;;;;;;10503941;28;20032;-86
2021/11/08 14:51:28;;;;;;;9.20;3.95;;;;;;;;;;10511541;28;20255;-86
2021/11/08 14:56:36;;;;;;;9.32;4.38;;;;;;;;;;10515190;28;20039;-87
2021/11/08 15:07:37;;;;;;;7.63;3.73;;;;;;;;;;10521874;28;20033;-87
2021/11/08 15:13:06;;;;;;;8.82;3.80;;;;;;;;;;10534555;28;20057;-86
2021/11/08 15:18:38;;;;;;;9.95;4.63;;;;;;;;;;10473959;28;20044;-86
2021/11/08 15:23:43;;;;;;;8.93;4.10;;;;;;;;;;10510250;28;20032;-86
2021/11/08 15:28:53;;;;;;;6.25;3.15;;;;;;;;;;10502868;28;20037;-84
2021/11/08 15:34:14;;;;;;;6.70;3.80;;;;;;;;;;10538789;28;20044;-85
2021/11/08 15:56:10;;;;;;;13.18;3.90;;;;;;;;;;10395897;28;20018;-85
2021/11/08 16:06:58;;;;;;;7.18;3.58;;;;;;;;;;10477915;28;20052;-85
2021/11/08 16:12:13;;;;;;;8.07;3.40;;;;;;;;;;10551172;28;20067;-85
2021/11/08 16:28:44;;;;;;;9.67;3.57;;;;;;;;;;10537873;28;20033;-85
2021/11/08 16:34:29;;;;;;;8.30;3.70;;;;;;;;;;10532760;28;20062;-84
2021/11/08 16:40:13;;;;;;;8.10;3.38;;;;;;;;;;10527142;28;20028;-85
2021/11/08 16:45:16;;;;;;;7.22;3.78;;;;;;;;;;10513882;28;20041;-85
2021/11/08 16:50:22;;;;;;;8.77;3.47;;;;;;;;;;10515031;28;20040;-86
2021/11/08 16:55:24;;;;;;;7.18;3.60;;;;;;;;;;10513038;28;20203;-86
2021/11/08 17:00:26;;;;;;;8.48;3.20;;;;;;;;;;10513056;28;20033;-87
2021/11/08 17:05:41;;;;;;;8.15;3.80;;;;;;;;;;10511357;28;20037;-86
2021/11/08 17:16:17;;;;;;;6.18;3.03;;;;;;;;;;10533226;28;20044;-91
2021/11/08 17:21:18;;;;;;;12.13;5.38;;;;;;;;;;10514733;28;20096;-83
2021/11/08 17:26:20;;;;;;;11.48;5.22;;;;;;;;;;10519869;28;20072;-86
2021/11/08 17:31:28;;;;;;;14.43;5.32;;;;;;;;;;10512948;28;20035;-86
2021/11/08 17:36:32;;;;;;;9.63;4.43;;;;;;;;;;10514205;28;20553;-88
2021/11/08 17:47:20;;;;;;;10.07;4.05;;;;;;;;;;10537594;28;20279;-90
2021/11/08 17:52:23;;;;;;;9.85;3.97;;;;;;;;;;10515375;28;20501;-87
2021/11/08 17:57:25;;;;;;;8.15;3.90;;;;;;;;;;10519632;28;20048;-87
2021/11/08 18:02:47;;;;;;;8.13;3.53;;;;;;;;;;10528906;28;20068;-86
2021/11/08 18:07:48;;;;;;;7.25;3.72;;;;;;;;;;10522095;28;20095;-86
